Time;durP1;ratioP1;P1;durP2;ratioP2;P2;SDS_P1;SDS_P2;PMS_P1;PMS_P2;Temp;Humidity;BMP_temperature;BMP_pressure;BME280_temperature;BME280_humidity;BME280_pressure;Samples;Min_cycle;Max_cycle;Signal;HPM_P1;HPM_P2
2022/12/26 00:01:50;;;;;;;175.13;36.58;;;7.60;99.90;;;;;;5055253;28;20045;-75
2022/12/26 00:04:16;;;;;;;140.20;33.28;;;7.60;99.90;;;;;;5055180;28;20045;-74
2022/12/26 00:06:42;;;;;;;183.43;38.63;;;7.60;99.90;;;;;;5055344;28;20044;-74
2022/12/26 00:09:09;;;;;;;188.50;38.90;;;7.60;99.90;;;;;;5055435;28;20124;-76
2022/12/26 00:11:35;;;;;;;162.60;35.85;;;7.60;99.90;;;;;;5055349;28;20044;-74
2022/12/26 00:14:04;;;;;;;199.98;40.83;;;7.60;99.90;;;;;;5038184;28;20033;-73
2022/12/26 00:16:32;;;;;;;151.82;36.25;;;7.60;99.90;;;;;;5055065;28;20056;-75
2022/12/26 00:18:58;;;;;;;169.32;37.60;;;7.60;99.90;;;;;;5055036;28;20048;-75
2022/12/26 00:21:26;;;;;;;152.38;35.35;;;7.70;99.90;;;;;;5038370;28;20409;-75
2022/12/26 00:23:53;;;;;;;185.32;39.38;;;7.60;99.90;;;;;;5038281;28;20128;-74
2022/12/26 00:26:20;;;;;;;202.38;38.00;;;7.70;99.90;;;;;;5054832;28;20048;-75
2022/12/26 00:28:47;;;;;;;160.23;35.60;;;7.70;99.90;;;;;;5054799;28;20112;-75
2022/12/26 00:31:22;;;;;;;190.02;39.33;;;7.70;99.90;;;;;;5054591;28;20059;-73
2022/12/26 00:33:48;;;;;;;211.32;40.17;;;7.70;99.90;;;;;;5054884;28;20045;-74
2022/12/26 00:36:17;;;;;;;197.93;36.85;;;7.80;99.90;;;;;;5055088;28;20082;-74
2022/12/26 00:38:44;;;;;;;201.27;38.78;;;7.70;99.90;;;;;;5054811;28;20389;-74
2022/12/26 00:41:11;;;;;;;190.35;37.55;;;7.70;99.90;;;;;;5054634;28;20045;-74
2022/12/26 00:43:37;;;;;;;197.43;37.63;;;7.70;99.90;;;;;;5054515;28;20153;-74
2022/12/26 00:46:03;;;;;;;229.45;39.20;;;7.70;99.90;;;;;;5059154;28;20094;-74
2022/12/26 00:48:30;;;;;;;235.73;36.85;;;7.70;99.90;;;;;;5057810;28;20078;-74
2022/12/26 00:50:55;;;;;;;251.50;41.50;;;7.70;99.90;;;;;;5074472;28;20124;-74
2022/12/26 00:53:22;;;;;;;224.52;36.65;;;7.70;99.90;;;;;;5074154;28;20123;-76
2022/12/26 00:55:48;;;;;;;205.90;38.95;;;7.70;99.90;;;;;;5074635;28;20032;-74
2022/12/26 00:58:14;;;;;;;273.27;40.70;;;7.80;99.90;;;;;;5074243;28;20044;-75
2022/12/26 01:00:40;;;;;;;237.52;34.83;;;7.70;99.90;;;;;;5073220;28;20441;-75
2022/12/26 01:03:07;;;;;;;226.20;36.28;;;7.70;99.90;;;;;;5063265;28;20098;-75
2022/12/26 01:05:33;;;;;;;193.95;33.13;;;7.70;99.90;;;;;;5054310;28;20049;-74
2022/12/26 01:07:59;;;;;;;169.63;34.90;;;7.70;99.90;;;;;;5054197;28;20044;-74
2022/12/26 01:10:26;;;;;;;176.40;35.30;;;7.70;99.90;;;;;;5054305;28;20040;-74
2022/12/26 01:12:52;;;;;;;177.48;32.92;;;7.80;99.90;;;;;;5053939;28;20051;-74
2022/12/26 01:15:18;;;;;;;155.60;31.50;;;7.80;99.90;;;;;;5053877;28;20053;-74
2022/12/26 01:17:44;;;;;;;148.40;32.75;;;7.70;99.90;;;;;;5053996;28;20087;-74
2022/12/26 01:20:10;;;;;;;170.63;36.17;;;7.80;99.90;;;;;;5053286;28;20090;-74
2022/12/26 01:22:37;;;;;;;146.13;33.25;;;7.80;99.90;;;;;;5037355;28;20099;-73
2022/12/26 01:25:03;;;;;;;136.48;31.67;;;7.80;99.90;;;;;;5056093;28;20053;-74
2022/12/26 01:27:29;;;;;;;117.18;30.33;;;7.80;99.90;;;;;;5057227;28;20040;-74
2022/12/26 01:29:55;;;;;;;124.60;32.42;;;7.80;99.90;;;;;;5073925;28;20059;-75
2022/12/26 01:32:21;;;;;;;105.70;29.02;;;7.90;99.90;;;;;;5074091;28;20488;-75
2022/12/26 01:34:48;;;;;;;123.38;30.63;;;7.80;99.90;;;;;;5073608;28;20040;-73
2022/12/26 01:37:15;;;;;;;121.32;31.85;;;7.80;99.90;;;;;;5056964;28;20044;-73
2022/12/26 01:39:41;;;;;;;120.00;30.88;;;7.80;99.90;;;;;;5073660;28;20070;-75
2022/12/26 01:42:18;;;;;;;92.13;27.02;;;7.90;99.90;;;;;;5040703;28;20041;-75
2022/12/26 01:44:59;;;;;;;82.35;23.50;;;7.80;99.90;;;;;;5053438;28;20041;-77
2022/12/26 01:47:38;;;;;;;69.20;22.75;;;7.90;99.90;;;;;;5053595;28;20037;-76
2022/12/26 01:50:05;;;;;;;63.60;19.63;;;7.90;99.90;;;;;;5036867;28;20106;-74
2022/12/26 01:52:41;;;;;;;71.80;21.17;;;7.90;99.90;;;;;;5053394;28;20132;-75
2022/12/26 01:55:09;;;;;;;65.18;20.65;;;7.90;99.90;;;;;;5053498;28;20040;-74
2022/12/26 01:57:40;;;;;;;55.15;19.23;;;7.90;99.90;;;;;;5052749;28;20032;-74
2022/12/26 02:00:06;;;;;;;60.08;20.45;;;8.00;99.90;;;;;;5053303;28;20127;-73
2022/12/26 02:05:32;;;;;;;57.90;20.60;;;8.00;99.90;;;;;;5053131;28;20037;-75
2022/12/26 02:05:33;;;;;;;70.03;24.02;;;8.00;99.90;;;;;;5053427;28;20072;-74
2022/12/26 02:08:03;;;;;;;71.80;22.80;;;8.00;99.90;;;;;;5036751;28;20373;-76
2022/12/26 02:10:34;;;;;;;82.28;26.55;;;8.10;99.90;;;;;;5053013;28;20048;-74
2022/12/26 02:13:00;;;;;;;72.13;25.58;;;8.10;99.90;;;;;;5052244;28;20048;-73
2022/12/26 02:15:27;;;;;;;68.03;23.48;;;8.10;99.90;;;;;;5052636;28;20140;-78
2022/12/26 02:17:53;;;;;;;79.65;27.58;;;8.10;99.90;;;;;;5052904;28;20051;-76
2022/12/26 02:20:25;;;;;;;87.07;29.00;;;8.10;99.90;;;;;;5052919;28;20041;-75
2022/12/26 02:23:12;;;;;;;87.63;30.85;;;8.10;99.90;;;;;;5052562;28;20485;-76
2022/12/26 02:25:56;;;;;;;73.90;28.45;;;8.10;99.90;;;;;;5052849;28;20068;-75
2022/12/26 02:29:00;;;;;;;85.63;30.27;;;8.10;99.90;;;;;;5039455;28;20503;-76
2022/12/26 02:31:59;;;;;;;89.97;31.50;;;8.10;99.90;;;;;;5072799;28;20147;-75
2022/12/26 02:34:34;;;;;;;96.82;32.85;;;8.10;99.90;;;;;;5055842;28;20044;-74
2022/12/26 02:37:23;;;;;;;96.78;34.13;;;8.00;99.90;;;;;;5072533;28;20047;-74
2022/12/26 02:40:26;;;;;;;87.00;34.00;;;8.00;99.90;;;;;;5072468;28;20123;-74
2022/12/26 02:42:58;;;;;;;93.32;35.20;;;8.10;99.90;;;;;;5055704;28;20122;-75
2022/12/26 02:48:48;;;;;;;108.55;39.47;;;8.10;99.90;;;;;;5071296;28;20040;-75
2022/12/26 03:15:12;;;;;;;104.53;40.60;;;8.20;99.90;;;;;;5051780;28;20060;-72
2022/12/26 03:17:47;;;;;;;108.15;38.75;;;8.20;99.90;;;;;;5051860;28;20041;-73
2022/12/26 03:20:28;;;;;;;89.32;36.83;;;8.10;99.90;;;;;;5051849;28;20090;-74
2022/12/26 03:22:55;;;;;;;99.78;37.72;;;8.10;99.90;;;;;;5051906;28;20120;-72
2022/12/26 03:28:31;;;;;;;106.13;38.47;;;8.10;99.90;;;;;;5056243;28;20583;-73
2022/12/26 03:31:03;;;;;;;102.25;37.90;;;8.10;99.90;;;;;;5039682;28;20040;-74
2022/12/26 03:36:45;;;;;;;110.28;39.95;;;8.10;99.90;;;;;;5076012;28;20051;-73
2022/12/26 04:44:11;;;;;;;96.20;40.17;;;7.80;99.90;;;;;;5074965;28;20063;-73
2022/12/26 04:46:45;;;;;;;87.13;37.30;;;7.80;99.90;;;;;;5074973;28;20120;-73
2022/12/26 04:51:59;;;;;;;76.72;35.58;;;7.90;99.90;;;;;;5074608;28;20506;-74
2022/12/26 04:54:25;;;;;;;84.10;37.35;;;7.80;99.90;;;;;;5056559;28;20078;-74
2022/12/26 04:56:52;;;;;;;81.32;36.45;;;7.80;99.90;;;;;;5074496;28;20045;-74
2022/12/26 04:59:19;;;;;;;70.95;33.92;;;7.80;99.90;;;;;;5074043;28;20086;-72
2022/12/26 05:10:07;;;;;;;78.88;35.80;;;7.70;99.90;;;;;;5074295;28;20115;-73
2022/12/26 05:12:33;;;;;;;78.50;37.55;;;7.60;99.90;;;;;;5073188;28;20052;-74
2022/12/26 05:14:59;;;;;;;80.97;37.00;;;7.60;99.90;;;;;;5073903;28;20049;-73
2022/12/26 05:28:40;;;;;;;74.40;36.13;;;7.50;99.90;;;;;;5060060;28;20509;-72
2022/12/26 05:29:02;;;;;;;64.88;32.33;;;7.50;99.90;;;;;;5060474;28;20052;-73
2022/12/26 05:31:29;;;;;;;59.47;30.67;;;7.50;99.90;;;;;;5054090;28;20056;-75
2022/12/26 05:36:40;;;;;;;59.33;31.90;;;7.60;99.90;;;;;;5053671;28;20128;-74
2022/12/26 05:39:07;;;;;;;57.15;30.60;;;7.60;99.90;;;;;;5053613;28;20048;-74
2022/12/26 05:41:33;;;;;;;58.65;33.20;;;7.60;99.90;;;;;;5053402;28;20511;-73
2022/12/26 05:43:59;;;;;;;57.30;32.03;;;7.60;99.90;;;;;;5053203;28;20032;-73
2022/12/26 05:46:25;;;;;;;55.72;32.70;;;7.60;99.90;;;;;;5036549;28;20435;-74
2022/12/26 05:48:50;;;;;;;56.88;30.73;;;7.70;99.90;;;;;;5053635;28;20080;-74
2022/12/26 05:51:16;;;;;;;56.45;31.98;;;7.70;99.90;;;;;;5053699;28;20572;-74
2022/12/26 05:53:41;;;;;;;53.40;28.52;;;7.80;99.90;;;;;;5053628;28;20502;-72
2022/12/26 05:56:11;;;;;;;54.30;30.67;;;7.80;99.90;;;;;;5053522;28;20531;-74
2022/12/26 05:58:38;;;;;;;48.05;27.83;;;7.80;99.90;;;;;;5053364;28;20060;-73
2022/12/26 06:01:11;;;;;;;47.00;27.02;;;7.80;99.90;;;;;;5072372;28;20036;-72
2022/12/26 06:03:38;;;;;;;48.45;26.70;;;7.90;99.90;;;;;;5072922;28;20041;-74
2022/12/26 06:06:05;;;;;;;47.72;27.67;;;7.90;99.90;;;;;;5053789;28;20052;-73
2022/12/26 06:08:31;;;;;;;48.22;28.70;;;7.90;99.80;;;;;;5052785;28;20041;-73
2022/12/26 06:10:57;;;;;;;43.08;27.25;;;7.90;99.80;;;;;;5053049;28;20430;-74
2022/12/26 06:13:23;;;;;;;45.95;27.20;;;7.90;99.80;;;;;;5036178;28;20179;-73
2022/12/26 06:15:48;;;;;;;46.00;27.65;;;8.00;99.80;;;;;;5052516;28;20064;-74
2022/12/26 06:18:14;;;;;;;45.42;27.23;;;8.00;99.80;;;;;;5052572;28;20045;-73
2022/12/26 06:20:40;;;;;;;45.63;27.13;;;7.90;99.70;;;;;;5052906;28;20044;-75
2022/12/26 06:23:06;;;;;;;44.40;26.67;;;7.90;99.70;;;;;;5062001;28;20045;-73
2022/12/26 06:25:32;;;;;;;44.47;26.35;;;7.90;99.70;;;;;;5056307;28;20481;-74
2022/12/26 06:27:58;;;;;;;38.72;23.58;;;7.90;99.70;;;;;;5072841;28;20071;-73
2022/12/26 06:30:23;;;;;;;40.85;24.55;;;7.90;99.70;;;;;;5072688;28;20144;-74
2022/12/26 06:32:49;;;;;;;35.85;24.08;;;7.80;99.60;;;;;;5072512;28;20114;-72
2022/12/26 06:35:15;;;;;;;39.38;24.98;;;7.80;99.40;;;;;;5073020;28;20127;-74
2022/12/26 06:37:40;;;;;;;40.42;25.65;;;7.70;99.40;;;;;;5072532;28;20036;-74
2022/12/26 06:40:07;;;;;;;40.33;26.02;;;7.60;99.40;;;;;;5070526;28;20045;-74
2022/12/26 06:42:32;;;;;;;39.42;26.10;;;7.60;99.40;;;;;;5052411;28;20037;-73
2022/12/26 06:44:58;;;;;;;41.25;25.25;;;7.60;99.30;;;;;;5052450;28;20041;-74
2022/12/26 06:47:23;;;;;;;38.50;23.55;;;7.50;99.30;;;;;;5052373;28;20040;-73
2022/12/26 06:49:49;;;;;;;35.20;23.23;;;7.50;99.40;;;;;;5052440;28;20041;-73
2022/12/26 06:52:15;;;;;;;37.13;23.52;;;7.40;99.30;;;;;;5035722;28;20041;-73
2022/12/26 06:54:40;;;;;;;38.22;22.75;;;7.40;99.30;;;;;;5052482;28;20045;-73
2022/12/26 06:57:06;;;;;;;34.55;21.58;;;7.40;99.30;;;;;;5045174;28;20040;-73
2022/12/26 06:59:32;;;;;;;36.30;23.27;;;7.40;99.40;;;;;;5071761;28;20080;-73
2022/12/26 07:01:58;;;;;;;38.42;22.23;;;7.40;99.40;;;;;;5055437;28;20550;-73
2022/12/26 07:04:23;;;;;;;35.30;21.88;;;7.50;99.50;;;;;;5072126;28;20040;-74
2022/12/26 07:06:49;;;;;;;33.35;21.38;;;7.40;99.50;;;;;;5072373;28;20450;-73
2022/12/26 07:09:18;;;;;;;29.15;18.40;;;7.40;99.50;;;;;;5072167;28;20036;-73
2022/12/26 07:11:46;;;;;;;33.30;19.52;;;7.40;99.50;;;;;;5055447;28;20095;-73
2022/12/26 07:14:12;;;;;;;36.38;20.77;;;7.40;99.40;;;;;;5071153;28;20579;-73
2022/12/26 07:16:39;;;;;;;26.70;17.23;;;7.30;99.40;;;;;;5072026;28;20091;-75
2022/12/26 07:19:06;;;;;;;32.85;19.85;;;7.30;99.20;;;;;;5072155;28;20045;-73
2022/12/26 07:21:31;;;;;;;29.35;18.02;;;7.30;99.30;;;;;;5072088;28;20041;-74
2022/12/26 07:23:57;;;;;;;31.02;18.13;;;7.30;99.20;;;;;;5055321;28;20082;-75
2022/12/26 07:26:24;;;;;;;28.48;16.58;;;7.20;99.20;;;;;;5072047;28;20097;-73
2022/12/26 07:28:54;;;;;;;26.33;15.57;;;7.10;99.20;;;;;;5054806;28;20036;-73
2022/12/26 07:31:21;;;;;;;22.83;14.73;;;7.10;99.20;;;;;;5072432;28;20380;-74
2022/12/26 07:33:48;;;;;;;22.92;14.75;;;7.20;99.30;;;;;;5055530;28;20049;-74
2022/12/26 07:36:14;;;;;;;21.58;14.35;;;7.10;99.30;;;;;;5055322;28;20037;-74
2022/12/26 07:38:40;;;;;;;29.27;15.32;;;7.20;99.20;;;;;;5054865;28;20400;-74
2022/12/26 07:43:50;;;;;;;21.13;13.30;;;7.20;99.30;;;;;;5056384;28;20052;-73
2022/12/26 07:46:16;;;;;;;22.48;12.05;;;7.30;99.30;;;;;;5063822;28;20036;-72
2022/12/26 07:48:41;;;;;;;19.83;12.18;;;7.30;99.30;;;;;;5067660;28;20075;-73
2022/12/26 07:51:07;;;;;;;18.90;12.40;;;7.40;99.20;;;;;;5070579;28;20115;-73
2022/12/26 07:53:33;;;;;;;19.77;12.63;;;7.40;99.20;;;;;;5054094;28;20116;-72
2022/12/26 07:55:59;;;;;;;22.58;12.25;;;7.40;99.20;;;;;;5070873;28;20105;-74
2022/12/26 07:58:25;;;;;;;19.55;11.98;;;7.50;99.20;;;;;;5071087;28;20083;-73
2022/12/26 08:00:50;;;;;;;21.38;11.65;;;7.50;99.10;;;;;;5054493;28;20110;-75
2022/12/26 08:03:16;;;;;;;19.85;11.88;;;7.50;99.10;;;;;;5070140;28;20435;-74
2022/12/26 08:05:49;;;;;;;20.52;11.30;;;7.50;99.10;;;;;;5050989;28;20041;-73
2022/12/26 08:08:15;;;;;;;19.58;11.70;;;7.60;99.10;;;;;;5051261;28;20041;-72
2022/12/26 08:10:41;;;;;;;21.40;12.30;;;7.60;99.10;;;;;;5053061;28;20041;-75
2022/12/26 08:13:07;;;;;;;17.38;10.40;;;7.60;99.10;;;;;;5057940;28;20036;-74
2022/12/26 08:15:33;;;;;;;17.17;11.20;;;7.60;99.10;;;;;;5074438;28;20116;-74
2022/12/26 08:17:58;;;;;;;15.65;10.30;;;7.70;99.10;;;;;;5058222;28;20135;-74
2022/12/26 08:20:24;;;;;;;16.38;9.52;;;7.70;99.10;;;;;;5074472;28;20513;-73
2022/12/26 08:22:50;;;;;;;18.30;10.00;;;7.70;99.20;;;;;;5074172;28;20048;-75
2022/12/26 08:25:16;;;;;;;18.58;9.90;;;7.70;99.20;;;;;;5058156;28;20040;-76
2022/12/26 08:27:41;;;;;;;19.00;10.07;;;7.70;99.20;;;;;;5074560;28;20036;-76
2022/12/26 08:30:08;;;;;;;17.15;9.27;;;7.70;99.10;;;;;;5071378;28;20482;-76
2022/12/26 08:32:34;;;;;;;14.73;10.02;;;7.70;99.20;;;;;;5005319;28;20120;-74
2022/12/26 08:34:59;;;;;;;19.25;9.60;;;7.70;99.10;;;;;;5054257;28;20477;-74
2022/12/26 08:37:25;;;;;;;17.48;10.32;;;7.70;99.10;;;;;;5054193;28;20131;-75
2022/12/26 08:39:52;;;;;;;18.60;10.43;;;7.70;99.20;;;;;;5037717;28;20051;-74
2022/12/26 08:42:19;;;;;;;15.45;10.23;;;7.80;99.20;;;;;;5054068;28;20052;-76
2022/12/26 08:44:45;;;;;;;15.20;9.40;;;7.80;99.10;;;;;;5054108;28;20051;-78
2022/12/26 08:47:11;;;;;;;15.18;9.10;;;7.90;99.20;;;;;;5034482;28;20404;-75
2022/12/26 08:49:36;;;;;;;17.23;9.82;;;8.00;99.00;;;;;;5074092;28;20044;-75
2022/12/26 08:52:02;;;;;;;11.90;7.72;;;8.00;99.00;;;;;;5074191;28;20040;-75
2022/12/26 08:54:28;;;;;;;15.18;8.00;;;8.20;98.80;;;;;;5074389;28;20044;-74
2022/12/26 08:56:54;;;;;;;14.43;8.05;;;8.20;98.80;;;;;;5073962;28;20041;-74
2022/12/26 08:59:19;;;;;;;10.48;7.63;;;8.30;98.80;;;;;;5057706;28;20059;-75
2022/12/26 09:01:45;;;;;;;17.05;8.70;;;8.30;98.80;;;;;;5065494;28;20045;-74
2022/12/26 09:04:11;;;;;;;13.20;8.30;;;8.20;98.70;;;;;;5056525;28;20170;-73
2022/12/26 09:06:37;;;;;;;13.90;7.45;;;8.20;98.70;;;;;;5067309;28;20374;-74
2022/12/26 09:09:05;;;;;;;19.30;8.07;;;8.30;98.60;;;;;;5045101;28;20037;-75
2022/12/26 09:11:30;;;;;;;21.25;4.97;;;8.20;98.40;;;;;;5031630;28;20468;-75
2022/12/26 09:13:58;;;;;;;27.55;5.38;;;8.10;97.20;;;;;;5063085;28;20086;-73
2022/12/26 09:16:35;;;;;;;23.40;4.20;;;8.10;96.60;;;;;;5047284;28;20124;-74
2022/12/26 09:19:01;;;;;;;15.77;3.50;;;8.00;96.00;;;;;;5063649;28;20040;-73
2022/12/26 09:21:28;;;;;;;15.00;3.05;;;7.80;95.30;;;;;;5061158;28;20555;-73
2022/12/26 09:23:59;;;;;;;12.48;3.25;;;7.60;94.70;;;;;;5060640;28;20033;-74
2022/12/26 09:26:25;;;;;;;15.43;3.38;;;7.50;93.90;;;;;;5060117;28;20427;-73
2022/12/26 09:28:51;;;;;;;12.82;3.15;;;7.50;94.00;;;;;;5069288;28;20040;-73
2022/12/26 09:31:20;;;;;;;17.63;3.80;;;7.40;93.60;;;;;;5071589;28;20045;-73
2022/12/26 09:33:47;;;;;;;13.07;3.28;;;7.30;93.70;;;;;;5071784;28;20484;-73
2022/12/26 09:36:18;;;;;;;18.58;4.13;;;7.30;93.50;;;;;;5054326;28;20484;-73
2022/12/26 09:38:45;;;;;;;9.52;2.45;;;7.20;93.40;;;;;;5066867;28;20098;-76
2022/12/26 09:41:23;;;;;;;10.25;2.70;;;7.20;93.30;;;;;;5071582;28;20480;-76
2022/12/26 09:44:07;;;;;;;15.43;3.72;;;7.20;93.40;;;;;;5066896;28;20072;-75
2022/12/26 09:47:05;;;;;;;12.35;3.13;;;7.20;93.20;;;;;;5064001;28;20040;-75
2022/12/26 09:49:36;;;;;;;11.07;2.53;;;7.20;93.30;;;;;;5068572;28;20036;-73
2022/12/26 09:52:13;;;;;;;14.93;3.20;;;7.30;93.30;;;;;;5069777;28;20040;-75
2022/12/26 09:54:46;;;;;;;13.85;3.35;;;7.20;93.40;;;;;;5066520;28;20067;-75
2022/12/26 09:57:23;;;;;;;17.27;3.33;;;7.30;93.70;;;;;;5061716;28;20047;-74
2022/12/26 09:59:55;;;;;;;18.42;3.90;;;7.40;93.90;;;;;;5064284;28;20123;-75
2022/12/26 10:02:23;;;;;;;19.60;3.28;;;7.40;94.60;;;;;;5070962;28;20071;-76
2022/12/26 10:04:49;;;;;;;12.65;2.85;;;7.50;94.90;;;;;;5054583;28;20115;-73
2022/12/26 10:07:41;;;;;;;13.93;2.78;;;7.40;95.30;;;;;;5069542;28;20048;-74
2022/12/26 10:10:17;;;;;;;16.33;2.45;;;7.50;95.80;;;;;;5070999;28;20486;-73
2022/12/26 10:13:02;;;;;;;15.88;2.53;;;7.50;96.00;;;;;;5069985;28;20059;-74
2022/12/26 10:15:39;;;;;;;17.38;2.33;;;7.30;96.20;;;;;;5067083;28;20056;-74
2022/12/26 10:18:32;;;;;;;13.63;3.05;;;7.30;96.50;;;;;;5067770;28;20056;-74
2022/12/26 10:21:16;;;;;;;17.38;2.78;;;7.20;96.20;;;;;;5070822;28;20079;-75
2022/12/26 10:23:44;;;;;;;17.80;3.73;;;7.10;96.20;;;;;;5070593;28;20485;-72
2022/12/26 10:26:13;;;;;;;14.80;3.50;;;7.10;95.40;;;;;;5069598;28;20068;-73
2022/12/26 10:28:58;;;;;;;14.07;2.83;;;7.10;95.00;;;;;;5070260;28;20037;-76
2022/12/26 10:31:57;;;;;;;11.27;2.80;;;7.00;94.70;;;;;;5070634;28;20106;-73
2022/12/26 10:34:35;;;;;;;8.63;1.98;;;7.00;94.40;;;;;;5067192;28;20493;-71
2022/12/26 10:37:30;;;;;;;12.63;2.00;;;7.00;94.10;;;;;;5069167;28;20384;-73
2022/12/26 10:40:02;;;;;;;;;;;7.00;93.30;;;;;;5066799;28;20045;-73
2022/12/26 10:43:01;;;;;;;9.93;2.03;;;6.90;92.90;;;;;;5070111;28;19927;-72
2022/12/26 10:46:13;;;;;;;9.88;1.70;;;6.90;92.70;;;;;;5062607;28;20048;-73
2022/12/26 10:48:39;;;;;;;9.30;1.80;;;6.90;92.00;;;;;;5051421;28;20036;-72
2022/12/26 10:51:05;;;;;;;7.28;1.50;;;7.00;91.90;;;;;;5070332;28;20036;-73
2022/12/26 10:53:41;;;;;;;3.90;1.35;;;7.00;90.90;;;;;;5053697;28;20040;-76
2022/12/26 10:56:07;;;;;;;12.07;2.63;;;7.10;91.10;;;;;;5069433;28;20484;-73
2022/12/26 10:58:36;;;;;;;8.70;1.70;;;7.10;91.30;;;;;;5069196;28;20044;-75
2022/12/26 11:01:24;;;;;;;12.77;2.08;;;7.10;91.80;;;;;;5070536;28;20051;-75
2022/12/26 11:04:02;;;;;;;9.55;1.92;;;7.00;91.90;;;;;;5070327;28;20053;-74
2022/12/26 11:06:38;;;;;;;8.05;1.83;;;7.00;92.20;;;;;;5065055;28;20060;-73
2022/12/26 11:09:05;;;;;;;8.93;2.08;;;6.90;92.20;;;;;;5070005;28;20041;-73
2022/12/26 11:11:44;;;;;;;9.90;3.72;;;6.90;92.30;;;;;;5070520;28;20036;-74
2022/12/26 11:14:41;;;;;;;13.40;2.10;;;6.90;92.50;;;;;;5070472;28;20040;-74
2022/12/26 11:17:11;;;;;;;14.02;2.80;;;6.90;92.70;;;;;;5066979;28;20447;-72
2022/12/26 11:19:41;;;;;;;13.32;2.30;;;6.80;92.80;;;;;;5071865;28;20148;-73
2022/12/26 11:22:13;;;;;;;11.95;2.53;;;6.90;92.80;;;;;;5063977;28;20495;-76
2022/12/26 11:24:39;;;;;;;20.58;5.18;;;6.90;92.50;;;;;;5051512;28;20044;-75
2022/12/26 11:27:22;;;;;;;12.48;2.58;;;6.90;92.40;;;;;;5034782;28;20033;-74
2022/12/26 11:29:48;;;;;;;10.73;2.08;;;7.00;91.60;;;;;;5051541;28;20040;-74
2022/12/26 11:32:19;;;;;;;15.63;2.67;;;7.00;90.60;;;;;;5038195;28;20089;-74
2022/12/26 11:34:47;;;;;;;11.45;2.47;;;7.10;89.00;;;;;;5071372;28;20045;-72
2022/12/26 11:37:36;;;;;;;15.77;2.63;;;7.10;88.50;;;;;;5069789;28;20492;-75
2022/12/26 11:40:03;;;;;;;11.50;2.63;;;7.10;87.40;;;;;;5052995;28;20044;-75
2022/12/26 11:42:29;;;;;;;17.52;3.90;;;7.10;87.20;;;;;;5051224;28;20088;-74
2022/12/26 11:44:58;;;;;;;14.27;2.60;;;7.20;86.30;;;;;;5052423;28;20076;-75
2022/12/26 11:47:28;;;;;;;13.73;3.05;;;7.30;85.20;;;;;;5055417;28;20041;-74
2022/12/26 11:50:03;;;;;;;18.05;3.45;;;7.30;85.30;;;;;;5055209;28;20033;-74
2022/12/26 11:53:02;;;;;;;12.50;2.33;;;7.30;83.70;;;;;;5038590;28;20083;-77
2022/12/26 11:55:30;;;;;;;10.88;2.08;;;7.40;82.90;;;;;;5054679;28;20041;-77
2022/12/26 11:58:07;;;;;;;13.93;2.28;;;7.40;83.80;;;;;;5055256;28;20131;-75
2022/12/26 12:00:38;;;;;;;11.82;2.75;;;7.40;83.20;;;;;;5055122;28;20489;-75
2022/12/26 12:03:13;;;;;;;14.98;4.53;;;7.40;83.00;;;;;;5055093;28;20041;-74
2022/12/26 12:06:06;;;;;;;16.83;2.95;;;7.30;83.30;;;;;;5054987;28;20124;-76
2022/12/26 12:08:56;;;;;;;11.52;2.58;;;7.50;83.70;;;;;;5055083;28;20037;-75
2022/12/26 12:11:57;;;;;;;16.80;4.70;;;7.70;83.80;;;;;;5054855;28;20504;-76
2022/12/26 12:14:47;;;;;;;12.02;3.03;;;8.00;83.30;;;;;;5038488;28;20393;-74
2022/12/26 12:17:31;;;;;;;8.82;2.10;;;8.10;81.10;;;;;;5037950;28;20045;-73
2022/12/26 12:20:12;;;;;;;16.02;3.50;;;8.10;79.30;;;;;;5063590;28;20045;-76
2022/12/26 12:22:43;;;;;;;11.98;3.88;;;8.20;79.00;;;;;;5074600;28;20041;-75
2022/12/26 12:25:45;;;;;;;11.50;2.50;;;8.30;77.90;;;;;;5074547;28;20433;-75
2022/12/26 12:28:24;;;;;;;10.27;2.22;;;8.40;77.70;;;;;;5055642;28;20040;-73
2022/12/26 12:31:09;;;;;;;14.82;2.80;;;8.40;78.00;;;;;;5054444;28;20511;-74
2022/12/26 12:33:48;;;;;;;12.40;3.22;;;8.50;77.20;;;;;;5054368;28;20045;-72
2022/12/26 12:36:23;;;;;;;11.88;2.75;;;8.50;76.70;;;;;;5062508;28;20041;-76
2022/12/26 12:39:10;;;;;;;10.20;2.95;;;8.50;76.60;;;;;;5074463;28;20044;-74
2022/12/26 12:42:13;;;;;;;17.05;3.08;;;8.50;76.60;;;;;;5073132;28;20063;-74
2022/12/26 12:44:48;;;;;;;10.32;2.63;;;8.60;76.80;;;;;;5064552;28;20175;-75
2022/12/26 12:47:35;;;;;;;16.63;3.75;;;8.60;76.70;;;;;;5072044;28;20460;-75
2022/12/26 12:50:08;;;;;;;15.98;3.85;;;8.80;76.60;;;;;;5072425;28;20037;-75
2022/12/26 12:52:56;;;;;;;14.85;2.30;;;8.90;76.60;;;;;;5072480;28;20527;-75
2022/12/26 12:55:50;;;;;;;11.75;2.55;;;9.00;76.70;;;;;;5070500;28;20106;-74
2022/12/26 12:58:25;;;;;;;12.70;2.63;;;9.00;76.40;;;;;;5068205;28;20036;-77
2022/12/26 13:01:05;;;;;;;13.27;2.60;;;8.80;76.30;;;;;;5060182;28;20045;-75
2022/12/26 13:04:01;;;;;;;9.00;2.33;;;8.60;76.40;;;;;;5060855;28;20099;-75
2022/12/26 13:06:51;;;;;;;13.73;2.38;;;8.40;77.20;;;;;;5062947;28;20389;-72
2022/12/26 13:09:22;;;;;;;16.33;2.88;;;8.20;77.40;;;;;;5068802;28;20036;-76
2022/12/26 13:11:55;;;;;;;9.43;2.00;;;8.10;77.60;;;;;;5068819;28;20119;-77
2022/12/26 13:14:29;;;;;;;10.82;2.67;;;7.90;78.90;;;;;;5071822;28;20131;-73
2022/12/26 13:17:10;;;;;;;;;;;8.00;78.30;;;;;;5064729;28;20117;-75
2022/12/26 13:20:24;;;;;;;7.18;1.95;;;8.00;78.60;;;;;;5069950;28;20364;-75
2022/12/26 13:26:11;;;;;;;14.98;2.78;;;8.10;79.30;;;;;;5070417;28;20047;-74
2022/12/26 13:28:50;;;;;;;12.75;2.90;;;8.00;80.10;;;;;;5071784;28;20041;-74
2022/12/26 13:31:16;;;;;;;10.40;2.95;;;7.90;80.30;;;;;;5071052;28;20032;-75
2022/12/26 13:33:43;;;;;;;11.05;2.90;;;8.00;80.70;;;;;;5071632;28;20043;-74
2022/12/26 13:36:09;;;;;;;16.60;2.80;;;8.10;80.30;;;;;;5068013;28;20049;-77
2022/12/26 13:38:50;;;;;;;12.45;2.45;;;8.20;79.50;;;;;;5065645;28;20551;-72
2022/12/26 13:44:23;;;;;;;13.68;3.05;;;8.10;78.70;;;;;;5068686;28;20055;-74
2022/12/26 13:46:48;;;;;;;15.10;2.60;;;7.90;78.70;;;;;;5070732;28;20052;-74
2022/12/26 13:49:28;;;;;;;12.60;2.78;;;7.90;79.00;;;;;;5066438;28;20128;-75
2022/12/26 13:52:21;;;;;;;10.38;2.80;;;8.00;79.30;;;;;;5058761;28;20074;-76
2022/12/26 13:54:46;;;;;;;12.38;2.92;;;7.80;79.50;;;;;;5066507;28;20116;-76
2022/12/26 13:57:15;;;;;;;14.48;2.97;;;7.70;79.30;;;;;;5066052;28;20133;-75
2022/12/26 14:00:05;;;;;;;15.50;5.38;;;7.60;79.70;;;;;;5054377;28;20043;-73
2022/12/26 14:03:07;;;;;;;18.40;4.63;;;7.60;80.00;;;;;;5070072;28;20041;-72
2022/12/26 14:05:48;;;;;;;18.75;7.15;;;7.60;80.20;;;;;;5054245;28;20075;-77
2022/12/26 14:08:32;;;;;;;16.30;5.28;;;7.60;80.60;;;;;;5063784;28;20045;-74
2022/12/26 14:11:10;;;;;;;11.60;4.13;;;7.50;80.40;;;;;;5065486;28;20040;-74
2022/12/26 14:13:44;;;;;;;18.83;5.60;;;7.50;80.30;;;;;;5054366;28;20044;-73
2022/12/26 14:16:40;;;;;;;16.58;5.25;;;7.50;80.40;;;;;;5066971;28;20535;-71
2022/12/26 14:19:38;;;;;;;17.83;4.95;;;7.30;80.60;;;;;;5051379;28;20127;-73
2022/12/26 14:22:37;;;;;;;14.27;5.18;;;7.30;80.70;;;;;;5067105;28;20051;-74
2022/12/26 14:25:29;;;;;;;22.08;6.68;;;7.20;80.70;;;;;;5068356;28;20051;-73
2022/12/26 14:28:32;;;;;;;13.23;4.47;;;7.10;80.80;;;;;;5069647;28;20079;-74
2022/12/26 14:31:21;;;;;;;27.20;9.25;;;7.10;81.00;;;;;;5067435;28;20036;-74
2022/12/26 14:34:24;;;;;;;15.57;8.45;;;7.00;82.10;;;;;;5069710;28;20048;-76
2022/12/26 14:37:13;;;;;;;15.98;7.18;;;6.90;82.20;;;;;;5065872;28;20109;-73
2022/12/26 14:40:07;;;;;;;19.95;10.43;;;6.80;82.10;;;;;;5068502;28;20367;-75
2022/12/26 14:43:11;;;;;;;25.50;14.43;;;6.70;82.40;;;;;;5068491;28;20543;-74
2022/12/26 14:45:42;;;;;;;26.52;13.75;;;6.60;82.50;;;;;;5069607;28;20047;-74
2022/12/26 14:48:16;;;;;;;16.23;10.00;;;6.60;82.90;;;;;;5062778;28;20045;-73
2022/12/26 14:50:50;;;;;;;32.03;16.75;;;6.50;83.00;;;;;;5068424;28;20041;-72
2022/12/26 14:53:28;;;;;;;21.58;11.23;;;6.40;83.60;;;;;;5065688;28;20083;-75
2022/12/26 14:55:57;;;;;;;16.27;7.20;;;6.30;83.80;;;;;;5070055;28;20052;-75
2022/12/26 14:58:28;;;;;;;20.33;9.55;;;6.20;84.30;;;;;;5066966;28;20047;-73
2022/12/26 15:00:55;;;;;;;22.23;9.43;;;6.10;84.70;;;;;;5065787;28;20040;-76
2022/12/26 15:03:54;;;;;;;32.65;16.33;;;6.10;85.10;;;;;;5053702;28;20404;-77
2022/12/26 15:06:20;;;;;;;34.80;16.45;;;6.00;85.40;;;;;;5069244;28;20040;-75
2022/12/26 15:09:04;;;;;;;25.63;14.50;;;5.90;85.70;;;;;;5062479;28;20036;-76
2022/12/26 15:11:51;;;;;;;25.92;7.57;;;5.90;85.60;;;;;;5061436;28;20395;-77
2022/12/26 15:14:45;;;;;;;16.92;7.38;;;5.90;86.10;;;;;;5062572;28;20041;-71
2022/12/26 15:17:55;;;;;;;18.63;6.10;;;5.70;86.00;;;;;;5065682;28;20139;-73
2022/12/26 15:20:39;;;;;;;18.33;7.07;;;5.60;86.20;;;;;;5053337;28;20040;-73
2022/12/26 15:23:10;;;;;;;22.20;7.53;;;5.60;86.50;;;;;;5051504;28;20044;-73